sensor_id;sensor_type;location;lat;lon;timestamp;P1;durP1;ratioP1;P2;durP2;ratioP2
35324;SDS011;35135;47.510;19.036;2023-04-15T00:00:38;1.40;;;0.93;;
35324;SDS011;35135;47.510;19.036;2023-04-15T00:03:03;1.38;;;0.88;;
35324;SDS011;35135;47.510;19.036;2023-04-15T00:05:31;1.17;;;0.68;;
35324;SDS011;35135;47.510;19.036;2023-04-15T00:07:57;1.27;;;0.85;;
35324;SDS011;35135;47.510;19.036;2023-04-15T00:10:24;1.17;;;0.90;;
35324;SDS011;35135;47.510;19.036;2023-04-15T00:12:50;1.23;;;0.80;;
35324;SDS011;35135;47.510;19.036;2023-04-15T00:15:16;1.63;;;1.00;;
35324;SDS011;35135;47.510;19.036;2023-04-15T00:17:42;1.42;;;0.80;;
35324;SDS011;35135;47.510;19.036;2023-04-15T00:20:08;1.35;;;0.80;;
35324;SDS011;35135;47.510;19.036;2023-04-15T00:22:34;2.03;;;1.00;;
35324;SDS011;35135;47.510;19.036;2023-04-15T00:25:00;1.67;;;0.80;;
35324;SDS011;35135;47.510;19.036;2023-04-15T00:27:26;1.40;;;0.90;;
35324;SDS011;35135;47.510;19.036;2023-04-15T00:29:52;2.13;;;1.00;;
35324;SDS011;35135;47.510;19.036;2023-04-15T00:32:18;1.23;;;0.90;;
35324;SDS011;35135;47.510;19.036;2023-04-15T00:34:44;1.33;;;0.98;;
35324;SDS011;35135;47.510;19.036;2023-04-15T00:37:10;1.48;;;0.90;;
35324;SDS011;35135;47.510;19.036;2023-04-15T00:39:36;1.27;;;0.75;;
35324;SDS011;35135;47.510;19.036;2023-04-15T00:42:03;0.90;;;0.80;;
35324;SDS011;35135;47.510;19.036;2023-04-15T00:44:29;1.45;;;1.00;;
35324;SDS011;35135;47.510;19.036;2023-04-15T00:46:54;1.13;;;1.00;;
35324;SDS011;35135;47.510;19.036;2023-04-15T00:49:21;1.33;;;0.90;;
35324;SDS011;35135;47.510;19.036;2023-04-15T00:51:48;1.52;;;0.90;;
35324;SDS011;35135;47.510;19.036;2023-04-15T00:54:14;1.00;;;0.80;;
35324;SDS011;35135;47.510;19.036;2023-04-15T00:56:40;1.33;;;0.90;;
35324;SDS011;35135;47.510;19.036;2023-04-15T00:59:06;1.35;;;1.05;;
35324;SDS011;35135;47.510;19.036;2023-04-15T01:01:33;1.48;;;1.08;;
35324;SDS011;35135;47.510;19.036;2023-04-15T01:04:00;1.95;;;1.30;;
35324;SDS011;35135;47.510;19.036;2023-04-15T01:06:26;1.00;;;0.90;;
35324;SDS011;35135;47.510;19.036;2023-04-15T01:08:55;1.08;;;0.88;;
35324;SDS011;35135;47.510;19.036;2023-04-15T01:11:22;1.40;;;0.90;;
35324;SDS011;35135;47.510;19.036;2023-04-15T01:13:49;1.17;;;1.00;;
35324;SDS011;35135;47.510;19.036;2023-04-15T01:16:15;1.33;;;1.00;;
35324;SDS011;35135;47.510;19.036;2023-04-15T01:18:42;1.38;;;1.00;;
35324;SDS011;35135;47.510;19.036;2023-04-15T01:21:08;1.15;;;0.85;;
35324;SDS011;35135;47.510;19.036;2023-04-15T01:23:35;1.17;;;0.90;;
35324;SDS011;35135;47.510;19.036;2023-04-15T01:26:02;1.23;;;0.88;;
35324;SDS011;35135;47.510;19.036;2023-04-15T01:28:29;1.33;;;0.90;;
35324;SDS011;35135;47.510;19.036;2023-04-15T01:31:07;1.52;;;1.00;;
35324;SDS011;35135;47.510;19.036;2023-04-15T01:33:34;1.10;;;0.90;;
35324;SDS011;35135;47.510;19.036;2023-04-15T01:36:00;1.02;;;0.93;;
35324;SDS011;35135;47.510;19.036;2023-04-15T01:38:26;1.20;;;0.80;;
35324;SDS011;35135;47.510;19.036;2023-04-15T01:40:53;0.85;;;0.80;;
35324;SDS011;35135;47.510;19.036;2023-04-15T01:43:19;1.38;;;1.02;;
35324;SDS011;35135;47.510;19.036;2023-04-15T01:45:45;1.40;;;1.17;;
35324;SDS011;35135;47.510;19.036;2023-04-15T01:48:11;1.80;;;1.20;;
35324;SDS011;35135;47.510;19.036;2023-04-15T01:50:36;1.35;;;1.02;;
35324;SDS011;35135;47.510;19.036;2023-04-15T01:53:02;1.00;;;0.90;;
35324;SDS011;35135;47.510;19.036;2023-04-15T01:55:28;1.45;;;1.10;;
35324;SDS011;35135;47.510;19.036;2023-04-15T01:57:55;1.80;;;1.00;;
35324;SDS011;35135;47.510;19.036;2023-04-15T02:00:20;1.15;;;1.05;;
35324;SDS011;35135;47.510;19.036;2023-04-15T02:02:47;1.60;;;1.10;;
35324;SDS011;35135;47.510;19.036;2023-04-15T02:05:13;1.42;;;1.10;;
35324;SDS011;35135;47.510;19.036;2023-04-15T02:07:40;1.30;;;1.10;;
35324;SDS011;35135;47.510;19.036;2023-04-15T02:10:09;1.52;;;0.93;;
35324;SDS011;35135;47.510;19.036;2023-04-15T02:12:37;1.25;;;1.02;;
35324;SDS011;35135;47.510;19.036;2023-04-15T02:15:03;1.33;;;1.00;;
35324;SDS011;35135;47.510;19.036;2023-04-15T02:17:29;1.20;;;1.00;;
35324;SDS011;35135;47.510;19.036;2023-04-15T02:19:58;1.77;;;0.98;;
35324;SDS011;35135;47.510;19.036;2023-04-15T02:22:24;1.42;;;1.20;;
35324;SDS011;35135;47.510;19.036;2023-04-15T02:24:50;1.10;;;1.00;;
35324;SDS011;35135;47.510;19.036;2023-04-15T02:27:16;1.48;;;1.10;;
35324;SDS011;35135;47.510;19.036;2023-04-15T02:29:43;1.50;;;1.00;;
35324;SDS011;35135;47.510;19.036;2023-04-15T02:32:10;1.33;;;1.13;;
35324;SDS011;35135;47.510;19.036;2023-04-15T02:34:36;1.60;;;1.33;;
35324;SDS011;35135;47.510;19.036;2023-04-15T02:37:05;1.98;;;1.33;;
35324;SDS011;35135;47.510;19.036;2023-04-15T02:39:31;1.17;;;0.95;;
35324;SDS011;35135;47.510;19.036;2023-04-15T02:41:57;2.25;;;1.17;;
35324;SDS011;35135;47.510;19.036;2023-04-15T02:44:24;1.98;;;1.10;;
35324;SDS011;35135;47.510;19.036;2023-04-15T02:46:51;1.25;;;1.05;;
35324;SDS011;35135;47.510;19.036;2023-04-15T02:49:19;0.93;;;0.80;;
35324;SDS011;35135;47.510;19.036;2023-04-15T02:51:45;1.15;;;1.00;;
35324;SDS011;35135;47.510;19.036;2023-04-15T02:54:18;2.35;;;1.27;;
35324;SDS011;35135;47.510;19.036;2023-04-15T02:56:45;1.65;;;1.38;;
35324;SDS011;35135;47.510;19.036;2023-04-15T02:59:11;1.20;;;1.00;;
35324;SDS011;35135;47.510;19.036;2023-04-15T03:01:37;1.45;;;1.23;;
35324;SDS011;35135;47.510;19.036;2023-04-15T03:04:03;1.42;;;1.10;;
35324;SDS011;35135;47.510;19.036;2023-04-15T03:06:28;1.48;;;1.10;;
35324;SDS011;35135;47.510;19.036;2023-04-15T03:08:54;1.23;;;0.95;;
35324;SDS011;35135;47.510;19.036;2023-04-15T03:11:21;1.48;;;1.05;;
35324;SDS011;35135;47.510;19.036;2023-04-15T03:13:47;1.33;;;1.10;;
35324;SDS011;35135;47.510;19.036;2023-04-15T03:16:13;1.30;;;1.20;;
35324;SDS011;35135;47.510;19.036;2023-04-15T03:18:38;1.20;;;1.05;;
35324;SDS011;35135;47.510;19.036;2023-04-15T03:21:04;1.40;;;1.10;;
35324;SDS011;35135;47.510;19.036;2023-04-15T03:23:30;1.42;;;1.33;;
35324;SDS011;35135;47.510;19.036;2023-04-15T03:25:56;1.45;;;1.10;;
35324;SDS011;35135;47.510;19.036;2023-04-15T03:28:23;1.13;;;1.02;;
35324;SDS011;35135;47.510;19.036;2023-04-15T03:30:49;1.30;;;1.20;;
35324;SDS011;35135;47.510;19.036;2023-04-15T03:33:15;2.28;;;1.52;;
35324;SDS011;35135;47.510;19.036;2023-04-15T03:35:41;1.33;;;1.10;;
35324;SDS011;35135;47.510;19.036;2023-04-15T03:38:06;1.23;;;1.13;;
35324;SDS011;35135;47.510;19.036;2023-04-15T03:40:32;1.17;;;1.05;;
35324;SDS011;35135;47.510;19.036;2023-04-15T03:42:58;1.88;;;1.20;;
35324;SDS011;35135;47.510;19.036;2023-04-15T03:45:24;1.38;;;1.17;;
35324;SDS011;35135;47.510;19.036;2023-04-15T03:47:49;1.30;;;1.00;;
35324;SDS011;35135;47.510;19.036;2023-04-15T03:50:15;1.58;;;1.35;;
35324;SDS011;35135;47.510;19.036;2023-04-15T03:52:41;1.30;;;1.08;;
35324;SDS011;35135;47.510;19.036;2023-04-15T03:55:08;1.85;;;1.38;;
35324;SDS011;35135;47.510;19.036;2023-04-15T03:57:34;1.50;;;1.40;;
35324;SDS011;35135;47.510;19.036;2023-04-15T04:00:02;1.50;;;1.20;;
35324;SDS011;35135;47.510;19.036;2023-04-15T04:02:29;1.52;;;1.17;;
35324;SDS011;35135;47.510;19.036;2023-04-15T04:04:55;2.55;;;1.30;;
35324;SDS011;35135;47.510;19.036;2023-04-15T04:07:22;2.08;;;1.33;;
35324;SDS011;35135;47.510;19.036;2023-04-15T04:09:48;1.30;;;1.20;;
35324;SDS011;35135;47.510;19.036;2023-04-15T04:12:14;1.30;;;1.20;;
35324;SDS011;35135;47.510;19.036;2023-04-15T04:14:40;1.20;;;1.10;;
35324;SDS011;35135;47.510;19.036;2023-04-15T04:17:06;1.50;;;1.27;;
35324;SDS011;35135;47.510;19.036;2023-04-15T04:19:32;1.65;;;1.30;;
35324;SDS011;35135;47.510;19.036;2023-04-15T04:21:58;1.20;;;1.10;;
35324;SDS011;35135;47.510;19.036;2023-04-15T04:24:23;1.42;;;1.10;;
35324;SDS011;35135;47.510;19.036;2023-04-15T04:26:49;2.05;;;1.50;;
35324;SDS011;35135;47.510;19.036;2023-04-15T04:29:15;1.27;;;1.17;;
35324;SDS011;35135;47.510;19.036;2023-04-15T04:31:41;1.40;;;1.30;;
35324;SDS011;35135;47.510;19.036;2023-04-15T04:34:06;1.30;;;1.20;;
35324;SDS011;35135;47.510;19.036;2023-04-15T04:36:32;1.90;;;1.20;;
35324;SDS011;35135;47.510;19.036;2023-04-15T04:38:58;2.13;;;1.60;;
35324;SDS011;35135;47.510;19.036;2023-04-15T04:41:23;1.73;;;1.25;;
35324;SDS011;35135;47.510;19.036;2023-04-15T04:43:49;1.30;;;1.20;;
35324;SDS011;35135;47.510;19.036;2023-04-15T04:46:15;1.55;;;1.20;;
35324;SDS011;35135;47.510;19.036;2023-04-15T04:48:40;1.33;;;1.17;;
35324;SDS011;35135;47.510;19.036;2023-04-15T04:51:06;1.63;;;1.40;;
35324;SDS011;35135;47.510;19.036;2023-04-15T04:53:32;1.85;;;1.23;;
35324;SDS011;35135;47.510;19.036;2023-04-15T04:55:57;2.45;;;1.27;;
35324;SDS011;35135;47.510;19.036;2023-04-15T04:58:23;2.00;;;1.05;;
35324;SDS011;35135;47.510;19.036;2023-04-15T05:00:49;1.20;;;1.10;;
35324;SDS011;35135;47.510;19.036;2023-04-15T05:03:15;1.30;;;1.20;;
35324;SDS011;35135;47.510;19.036;2023-04-15T05:05:41;1.67;;;1.25;;
35324;SDS011;35135;47.510;19.036;2023-04-15T05:08:07;1.25;;;1.00;;
35324;SDS011;35135;47.510;19.036;2023-04-15T05:10:33;1.52;;;1.25;;
35324;SDS011;35135;47.510;19.036;2023-04-15T05:12:58;1.42;;;1.17;;
35324;SDS011;35135;47.510;19.036;2023-04-15T05:15:24;1.38;;;1.27;;
35324;SDS011;35135;47.510;19.036;2023-04-15T05:17:50;1.30;;;1.00;;
35324;SDS011;35135;47.510;19.036;2023-04-15T05:20:15;2.70;;;1.05;;
35324;SDS011;35135;47.510;19.036;2023-04-15T05:22:41;3.55;;;1.25;;
35324;SDS011;35135;47.510;19.036;2023-04-15T05:25:07;2.00;;;1.38;;
35324;SDS011;35135;47.510;19.036;2023-04-15T05:27:33;1.30;;;1.10;;
35324;SDS011;35135;47.510;19.036;2023-04-15T05:29:59;1.40;;;1.30;;
35324;SDS011;35135;47.510;19.036;2023-04-15T05:32:27;1.17;;;1.00;;
35324;SDS011;35135;47.510;19.036;2023-04-15T05:34:53;1.48;;;1.10;;
35324;SDS011;35135;47.510;19.036;2023-04-15T05:37:19;1.75;;;0.90;;
35324;SDS011;35135;47.510;19.036;2023-04-15T05:39:46;1.60;;;1.10;;
35324;SDS011;35135;47.510;19.036;2023-04-15T05:42:13;1.70;;;1.08;;
35324;SDS011;35135;47.510;19.036;2023-04-15T05:44:41;1.52;;;1.15;;
35324;SDS011;35135;47.510;19.036;2023-04-15T05:47:07;1.48;;;1.20;;
35324;SDS011;35135;47.510;19.036;2023-04-15T05:49:34;1.95;;;1.45;;
35324;SDS011;35135;47.510;19.036;2023-04-15T05:52:00;5.93;;;3.38;;
35324;SDS011;35135;47.510;19.036;2023-04-15T05:54:26;13.85;;;7.85;;
35324;SDS011;35135;47.510;19.036;2023-04-15T05:56:52;13.07;;;7.68;;
35324;SDS011;35135;47.510;19.036;2023-04-15T05:59:18;16.98;;;9.25;;
35324;SDS011;35135;47.510;19.036;2023-04-15T06:01:44;22.25;;;10.77;;
35324;SDS011;35135;47.510;19.036;2023-04-15T06:04:09;21.50;;;12.52;;
35324;SDS011;35135;47.510;19.036;2023-04-15T06:06:36;24.52;;;12.90;;
35324;SDS011;35135;47.510;19.036;2023-04-15T06:09:02;25.75;;;13.57;;
35324;SDS011;35135;47.510;19.036;2023-04-15T06:11:28;24.67;;;12.85;;
35324;SDS011;35135;47.510;19.036;2023-04-15T06:13:54;32.28;;;13.95;;
35324;SDS011;35135;47.510;19.036;2023-04-15T06:16:20;25.63;;;13.00;;
35324;SDS011;35135;47.510;19.036;2023-04-15T06:18:47;28.58;;;13.82;;
35324;SDS011;35135;47.510;19.036;2023-04-15T06:21:12;29.15;;;14.82;;
35324;SDS011;35135;47.510;19.036;2023-04-15T06:23:39;34.55;;;14.82;;
35324;SDS011;35135;47.510;19.036;2023-04-15T06:26:05;31.45;;;13.77;;
35324;SDS011;35135;47.510;19.036;2023-04-15T06:28:31;32.30;;;14.70;;
35324;SDS011;35135;47.510;19.036;2023-04-15T06:30:57;25.75;;;13.18;;
35324;SDS011;35135;47.510;19.036;2023-04-15T06:33:23;31.63;;;13.68;;
35324;SDS011;35135;47.510;19.036;2023-04-15T06:35:48;27.95;;;12.27;;
35324;SDS011;35135;47.510;19.036;2023-04-15T06:38:14;24.00;;;11.23;;
35324;SDS011;35135;47.510;19.036;2023-04-15T06:40:40;24.00;;;10.85;;
35324;SDS011;35135;47.510;19.036;2023-04-15T06:43:06;25.38;;;10.15;;
35324;SDS011;35135;47.510;19.036;2023-04-15T06:45:33;19.48;;;10.02;;
35324;SDS011;35135;47.510;19.036;2023-04-15T06:47:59;20.08;;;9.52;;
35324;SDS011;35135;47.510;19.036;2023-04-15T06:50:24;20.05;;;9.60;;
35324;SDS011;35135;47.510;19.036;2023-04-15T06:52:51;20.63;;;9.40;;
35324;SDS011;35135;47.510;19.036;2023-04-15T06:55:20;18.00;;;8.48;;
35324;SDS011;35135;47.510;19.036;2023-04-15T06:57:46;16.00;;;8.77;;
35324;SDS011;35135;47.510;19.036;2023-04-15T07:00:12;14.60;;;7.65;;
35324;SDS011;35135;47.510;19.036;2023-04-15T07:02:38;13.43;;;7.20;;
35324;SDS011;35135;47.510;19.036;2023-04-15T07:05:04;14.95;;;7.55;;
35324;SDS011;35135;47.510;19.036;2023-04-15T07:07:31;13.45;;;6.88;;
35324;SDS011;35135;47.510;19.036;2023-04-15T07:09:56;12.93;;;6.40;;
35324;SDS011;35135;47.510;19.036;2023-04-15T07:12:22;16.42;;;7.70;;
35324;SDS011;35135;47.510;19.036;2023-04-15T07:14:48;12.70;;;6.50;;
35324;SDS011;35135;47.510;19.036;2023-04-15T07:17:14;11.02;;;6.00;;
35324;SDS011;35135;47.510;19.036;2023-04-15T07:19:39;11.30;;;6.28;;
35324;SDS011;35135;47.510;19.036;2023-04-15T07:22:05;9.07;;;5.47;;
35324;SDS011;35135;47.510;19.036;2023-04-15T07:24:31;10.18;;;5.90;;
35324;SDS011;35135;47.510;19.036;2023-04-15T07:26:57;9.00;;;5.13;;
35324;SDS011;35135;47.510;19.036;2023-04-15T07:29:23;11.02;;;5.63;;
35324;SDS011;35135;47.510;19.036;2023-04-15T07:31:50;9.45;;;5.40;;
35324;SDS011;35135;47.510;19.036;2023-04-15T07:34:16;9.50;;;4.75;;
35324;SDS011;35135;47.510;19.036;2023-04-15T07:36:43;9.13;;;4.95;;
35324;SDS011;35135;47.510;19.036;2023-04-15T07:39:10;7.78;;;4.50;;
35324;SDS011;35135;47.510;19.036;2023-04-15T07:41:36;7.20;;;4.60;;
35324;SDS011;35135;47.510;19.036;2023-04-15T07:44:02;7.63;;;4.13;;
35324;SDS011;35135;47.510;19.036;2023-04-15T07:46:28;7.45;;;3.97;;
35324;SDS011;35135;47.510;19.036;2023-04-15T07:48:53;7.50;;;4.03;;
35324;SDS011;35135;47.510;19.036;2023-04-15T07:51:19;6.68;;;4.32;;
35324;SDS011;35135;47.510;19.036;2023-04-15T07:53:46;7.07;;;3.70;;
35324;SDS011;35135;47.510;19.036;2023-04-15T07:56:14;6.18;;;3.78;;
35324;SDS011;35135;47.510;19.036;2023-04-15T07:58:40;7.68;;;4.15;;
35324;SDS011;35135;47.510;19.036;2023-04-15T08:01:06;6.15;;;3.60;;
35324;SDS011;35135;47.510;19.036;2023-04-15T08:03:32;4.65;;;3.10;;
35324;SDS011;35135;47.510;19.036;2023-04-15T08:05:58;6.35;;;3.13;;
35324;SDS011;35135;47.510;19.036;2023-04-15T08:08:24;5.18;;;3.10;;
35324;SDS011;35135;47.510;19.036;2023-04-15T08:10:50;6.75;;;3.30;;
35324;SDS011;35135;47.510;19.036;2023-04-15T08:13:16;4.80;;;2.97;;
35324;SDS011;35135;47.510;19.036;2023-04-15T08:15:42;11.02;;;3.50;;
35324;SDS011;35135;47.510;19.036;2023-04-15T08:18:08;8.57;;;3.25;;
35324;SDS011;35135;47.510;19.036;2023-04-15T08:20:33;10.05;;;3.35;;
35324;SDS011;35135;47.510;19.036;2023-04-15T08:22:59;5.32;;;3.15;;
35324;SDS011;35135;47.510;19.036;2023-04-15T08:25:25;5.35;;;2.60;;
35324;SDS011;35135;47.510;19.036;2023-04-15T08:27:51;4.18;;;2.60;;
35324;SDS011;35135;47.510;19.036;2023-04-15T08:30:19;6.47;;;2.60;;
35324;SDS011;35135;47.510;19.036;2023-04-15T08:32:45;7.03;;;2.72;;
35324;SDS011;35135;47.510;19.036;2023-04-15T08:35:11;10.15;;;3.13;;
35324;SDS011;35135;47.510;19.036;2023-04-15T08:37:37;6.85;;;2.90;;
35324;SDS011;35135;47.510;19.036;2023-04-15T08:40:03;5.03;;;2.20;;
35324;SDS011;35135;47.510;19.036;2023-04-15T08:42:30;5.35;;;2.30;;
35324;SDS011;35135;47.510;19.036;2023-04-15T08:44:58;4.47;;;2.47;;
35324;SDS011;35135;47.510;19.036;2023-04-15T08:47:25;6.43;;;2.17;;
35324;SDS011;35135;47.510;19.036;2023-04-15T08:49:55;4.65;;;2.25;;
35324;SDS011;35135;47.510;19.036;2023-04-15T08:52:24;4.75;;;1.90;;
35324;SDS011;35135;47.510;19.036;2023-04-15T08:54:50;3.55;;;2.00;;
35324;SDS011;35135;47.510;19.036;2023-04-15T08:57:22;5.90;;;2.40;;
35324;SDS011;35135;47.510;19.036;2023-04-15T08:59:52;2.55;;;1.80;;
35324;SDS011;35135;47.510;19.036;2023-04-15T09:02:21;4.85;;;2.50;;
35324;SDS011;35135;47.510;19.036;2023-04-15T09:04:49;4.10;;;1.75;;
35324;SDS011;35135;47.510;19.036;2023-04-15T09:07:15;3.47;;;1.77;;
35324;SDS011;35135;47.510;19.036;2023-04-15T09:09:41;4.85;;;2.20;;
35324;SDS011;35135;47.510;19.036;2023-04-15T09:12:07;5.25;;;2.05;;
35324;SDS011;35135;47.510;19.036;2023-04-15T09:14:33;5.55;;;2.05;;
35324;SDS011;35135;47.510;19.036;2023-04-15T09:17:00;4.22;;;2.00;;
35324;SDS011;35135;47.510;19.036;2023-04-15T09:19:27;4.68;;;2.05;;
35324;SDS011;35135;47.510;19.036;2023-04-15T09:21:54;3.22;;;1.90;;
35324;SDS011;35135;47.510;19.036;2023-04-15T09:24:21;4.65;;;1.80;;
35324;SDS011;35135;47.510;19.036;2023-04-15T09:26:47;4.38;;;2.00;;
35324;SDS011;35135;47.510;19.036;2023-04-15T09:29:18;3.20;;;1.75;;
35324;SDS011;35135;47.510;19.036;2023-04-15T09:31:44;5.45;;;2.53;;
35324;SDS011;35135;47.510;19.036;2023-04-15T09:34:10;4.15;;;2.40;;
35324;SDS011;35135;47.510;19.036;2023-04-15T09:39:11;3.95;;;1.65;;
35324;SDS011;35135;47.510;19.036;2023-04-15T09:41:38;3.58;;;1.90;;
35324;SDS011;35135;47.510;19.036;2023-04-15T09:44:04;4.22;;;1.95;;
35324;SDS011;35135;47.510;19.036;2023-04-15T09:46:43;4.13;;;1.63;;
35324;SDS011;35135;47.510;19.036;2023-04-15T09:49:10;2.30;;;1.50;;
35324;SDS011;35135;47.510;19.036;2023-04-15T09:51:37;6.35;;;1.85;;
35324;SDS011;35135;47.510;19.036;2023-04-15T09:54:03;3.60;;;1.88;;
35324;SDS011;35135;47.510;19.036;2023-04-15T09:56:35;4.20;;;1.80;;
35324;SDS011;35135;47.510;19.036;2023-04-15T09:59:05;4.13;;;2.10;;
35324;SDS011;35135;47.510;19.036;2023-04-15T10:01:32;5.32;;;1.73;;
35324;SDS011;35135;47.510;19.036;2023-04-15T10:03:57;5.57;;;1.90;;
35324;SDS011;35135;47.510;19.036;2023-04-15T10:06:26;5.45;;;2.05;;
35324;SDS011;35135;47.510;19.036;2023-04-15T10:08:53;4.47;;;1.88;;
35324;SDS011;35135;47.510;19.036;2023-04-15T10:11:19;3.63;;;2.17;;
35324;SDS011;35135;47.510;19.036;2023-04-15T10:13:48;7.68;;;2.30;;
35324;SDS011;35135;47.510;19.036;2023-04-15T10:16:15;7.05;;;2.95;;
35324;SDS011;35135;47.510;19.036;2023-04-15T10:18:44;16.35;;;3.40;;
35324;SDS011;35135;47.510;19.036;2023-04-15T10:21:18;11.13;;;3.33;;
35324;SDS011;35135;47.510;19.036;2023-04-15T10:23:44;11.52;;;3.22;;
35324;SDS011;35135;47.510;19.036;2023-04-15T10:26:11;11.20;;;3.10;;
35324;SDS011;35135;47.510;19.036;2023-04-15T10:28:39;9.27;;;3.20;;
35324;SDS011;35135;47.510;19.036;2023-04-15T10:31:05;7.20;;;2.55;;
35324;SDS011;35135;47.510;19.036;2023-04-15T10:33:33;10.25;;;2.55;;
35324;SDS011;35135;47.510;19.036;2023-04-15T10:35:59;8.43;;;2.10;;
35324;SDS011;35135;47.510;19.036;2023-04-15T10:41:23;8.18;;;2.28;;
35324;SDS011;35135;47.510;19.036;2023-04-15T10:44:03;4.85;;;2.30;;
35324;SDS011;35135;47.510;19.036;2023-04-15T10:49:06;9.43;;;2.45;;
35324;SDS011;35135;47.510;19.036;2023-04-15T10:51:32;9.82;;;2.47;;
35324;SDS011;35135;47.510;19.036;2023-04-15T10:53:58;6.22;;;2.08;;
35324;SDS011;35135;47.510;19.036;2023-04-15T10:56:24;8.95;;;2.45;;
35324;SDS011;35135;47.510;19.036;2023-04-15T10:58:50;12.65;;;2.40;;
35324;SDS011;35135;47.510;19.036;2023-04-15T11:01:16;7.13;;;2.33;;
35324;SDS011;35135;47.510;19.036;2023-04-15T11:03:47;7.57;;;2.10;;
35324;SDS011;35135;47.510;19.036;2023-04-15T11:06:14;9.80;;;2.15;;
35324;SDS011;35135;47.510;19.036;2023-04-15T11:08:54;17.58;;;3.95;;
35324;SDS011;35135;47.510;19.036;2023-04-15T11:11:21;14.32;;;2.72;;
35324;SDS011;35135;47.510;19.036;2023-04-15T11:13:47;10.93;;;2.58;;
35324;SDS011;35135;47.510;19.036;2023-04-15T11:16:14;12.10;;;2.42;;
35324;SDS011;35135;47.510;19.036;2023-04-15T11:18:40;12.82;;;3.25;;
35324;SDS011;35135;47.510;19.036;2023-04-15T11:21:06;9.75;;;2.80;;
35324;SDS011;35135;47.510;19.036;2023-04-15T11:23:34;16.13;;;2.63;;
35324;SDS011;35135;47.510;19.036;2023-04-15T11:26:08;9.55;;;2.40;;
35324;SDS011;35135;47.510;19.036;2023-04-15T11:28:36;13.93;;;2.60;;
35324;SDS011;35135;47.510;19.036;2023-04-15T11:31:05;7.97;;;2.03;;
35324;SDS011;35135;47.510;19.036;2023-04-15T11:33:44;9.75;;;2.40;;
35324;SDS011;35135;47.510;19.036;2023-04-15T11:36:30;5.13;;;1.90;;
35324;SDS011;35135;47.510;19.036;2023-04-15T11:38:57;9.23;;;2.38;;
35324;SDS011;35135;47.510;19.036;2023-04-15T11:41:23;4.50;;;1.60;;
35324;SDS011;35135;47.510;19.036;2023-04-15T11:43:50;9.57;;;1.85;;
35324;SDS011;35135;47.510;19.036;2023-04-15T11:46:16;9.32;;;2.03;;
35324;SDS011;35135;47.510;19.036;2023-04-15T11:48:43;6.30;;;2.00;;
35324;SDS011;35135;47.510;19.036;2023-04-15T11:51:10;5.93;;;2.05;;
35324;SDS011;35135;47.510;19.036;2023-04-15T11:56:10;6.07;;;1.77;;
35324;SDS011;35135;47.510;19.036;2023-04-15T11:58:44;5.32;;;1.85;;
35324;SDS011;35135;47.510;19.036;2023-04-15T12:01:10;6.35;;;1.52;;
35324;SDS011;35135;47.510;19.036;2023-04-15T12:03:40;6.38;;;1.70;;
35324;SDS011;35135;47.510;19.036;2023-04-15T12:16:35;4.93;;;1.30;;
35324;SDS011;35135;47.510;19.036;2023-04-15T12:19:09;5.43;;;1.40;;
35324;SDS011;35135;47.510;19.036;2023-04-15T12:21:36;6.53;;;1.35;;
35324;SDS011;35135;47.510;19.036;2023-04-15T12:24:04;5.63;;;1.55;;
35324;SDS011;35135;47.510;19.036;2023-04-15T12:26:33;6.43;;;1.42;;
35324;SDS011;35135;47.510;19.036;2023-04-15T12:29:03;3.92;;;1.40;;
35324;SDS011;35135;47.510;19.036;2023-04-15T12:31:31;3.35;;;1.17;;
35324;SDS011;35135;47.510;19.036;2023-04-15T12:33:57;3.17;;;1.27;;
35324;SDS011;35135;47.510;19.036;2023-04-15T12:36:24;6.47;;;1.90;;
35324;SDS011;35135;47.510;19.036;2023-04-15T12:38:51;4.97;;;1.23;;
35324;SDS011;35135;47.510;19.036;2023-04-15T12:41:16;7.43;;;1.38;;
35324;SDS011;35135;47.510;19.036;2023-04-15T12:43:45;4.00;;;1.30;;
35324;SDS011;35135;47.510;19.036;2023-04-15T12:46:11;2.97;;;1.17;;
35324;SDS011;35135;47.510;19.036;2023-04-15T12:48:39;4.93;;;1.60;;
35324;SDS011;35135;47.510;19.036;2023-04-15T12:51:05;7.35;;;1.63;;
35324;SDS011;35135;47.510;19.036;2023-04-15T12:53:31;6.13;;;1.63;;
35324;SDS011;35135;47.510;19.036;2023-04-15T12:55:56;7.80;;;1.58;;
35324;SDS011;35135;47.510;19.036;2023-04-15T12:58:22;6.80;;;1.60;;
35324;SDS011;35135;47.510;19.036;2023-04-15T13:00:48;8.30;;;1.13;;
35324;SDS011;35135;47.510;19.036;2023-04-15T13:03:14;5.18;;;1.40;;
35324;SDS011;35135;47.510;19.036;2023-04-15T13:05:40;4.43;;;1.27;;
35324;SDS011;35135;47.510;19.036;2023-04-15T13:08:06;5.28;;;1.13;;
35324;SDS011;35135;47.510;19.036;2023-04-15T13:10:32;5.85;;;1.13;;
35324;SDS011;35135;47.510;19.036;2023-04-15T13:13:02;2.35;;;1.00;;
35324;SDS011;35135;47.510;19.036;2023-04-15T13:15:29;2.47;;;0.98;;
35324;SDS011;35135;47.510;19.036;2023-04-15T13:17:55;4.40;;;1.17;;
35324;SDS011;35135;47.510;19.036;2023-04-15T13:20:21;6.75;;;1.45;;
35324;SDS011;35135;47.510;19.036;2023-04-15T13:22:47;2.58;;;1.23;;
35324;SDS011;35135;47.510;19.036;2023-04-15T13:25:12;6.22;;;1.30;;
35324;SDS011;35135;47.510;19.036;2023-04-15T13:27:38;3.97;;;1.02;;
35324;SDS011;35135;47.510;19.036;2023-04-15T13:30:04;3.95;;;0.90;;
35324;SDS011;35135;47.510;19.036;2023-04-15T13:32:30;3.20;;;1.38;;
35324;SDS011;35135;47.510;19.036;2023-04-15T13:34:56;2.50;;;1.10;;
35324;SDS011;35135;47.510;19.036;2023-04-15T13:37:28;3.20;;;0.70;;
35324;SDS011;35135;47.510;19.036;2023-04-15T13:39:54;2.17;;;0.80;;
35324;SDS011;35135;47.510;19.036;2023-04-15T13:42:20;2.42;;;0.90;;
35324;SDS011;35135;47.510;19.036;2023-04-15T13:44:48;2.63;;;0.85;;
35324;SDS011;35135;47.510;19.036;2023-04-15T13:47:15;1.10;;;0.50;;
35324;SDS011;35135;47.510;19.036;2023-04-15T13:49:42;3.17;;;1.00;;
35324;SDS011;35135;47.510;19.036;2023-04-15T13:52:08;2.13;;;0.90;;
35324;SDS011;35135;47.510;19.036;2023-04-15T13:54:33;2.65;;;0.70;;
35324;SDS011;35135;47.510;19.036;2023-04-15T13:56:59;4.53;;;0.95;;
35324;SDS011;35135;47.510;19.036;2023-04-15T13:59:26;2.53;;;0.80;;
35324;SDS011;35135;47.510;19.036;2023-04-15T14:01:51;3.05;;;0.80;;
35324;SDS011;35135;47.510;19.036;2023-04-15T14:04:17;1.95;;;0.60;;
35324;SDS011;35135;47.510;19.036;2023-04-15T14:06:43;3.15;;;0.70;;
35324;SDS011;35135;47.510;19.036;2023-04-15T14:09:08;4.13;;;1.08;;
35324;SDS011;35135;47.510;19.036;2023-04-15T14:11:34;4.50;;;1.05;;
35324;SDS011;35135;47.510;19.036;2023-04-15T14:14:02;5.15;;;1.30;;
35324;SDS011;35135;47.510;19.036;2023-04-15T14:16:27;5.47;;;1.42;;
35324;SDS011;35135;47.510;19.036;2023-04-15T14:18:53;9.02;;;1.90;;
35324;SDS011;35135;47.510;19.036;2023-04-15T14:21:19;7.35;;;1.80;;
35324;SDS011;35135;47.510;19.036;2023-04-15T14:23:45;6.68;;;2.10;;
35324;SDS011;35135;47.510;19.036;2023-04-15T14:26:10;8.60;;;2.05;;
35324;SDS011;35135;47.510;19.036;2023-04-15T14:28:37;13.60;;;2.70;;
35324;SDS011;35135;47.510;19.036;2023-04-15T14:31:03;9.52;;;2.35;;
35324;SDS011;35135;47.510;19.036;2023-04-15T14:33:29;9.50;;;2.65;;
35324;SDS011;35135;47.510;19.036;2023-04-15T14:35:54;7.57;;;2.15;;
35324;SDS011;35135;47.510;19.036;2023-04-15T14:38:20;10.48;;;1.90;;
35324;SDS011;35135;47.510;19.036;2023-04-15T14:40:46;11.68;;;2.90;;
35324;SDS011;35135;47.510;19.036;2023-04-15T14:43:12;8.35;;;1.90;;
35324;SDS011;35135;47.510;19.036;2023-04-15T14:45:38;9.18;;;2.40;;
35324;SDS011;35135;47.510;19.036;2023-04-15T14:48:04;8.32;;;2.38;;